Brownwood, Texas
Current Conditions -  °F | °C
As of 5:35 PM on Saturday 25 Oct 2014 (Local Time) from KBWD Reporting Station
Clear Clear  
Wind Chill: 86°   Ceiling: Unl
Heat Index: 86°   Visibility: 10mi
Dew Point: 50°   Wind: 7mph
Humidity: 29%   Direction: 150°SSE
Pressure: 30.08"   Gusts: NA
Location:  31.73°N, 98.98°W
Report Text: KBWD 252235Z AUTO 15006KT 10SM CLR 30/10 A3008 RMK AO2
Loading
Personal Weather Stations






























Interactive Weather Map
Tropical Storm Tracking
New forecast layout! Learn more

10-Day Weather Forecast

Advertisements
Track Severe Weather on mobile